KHRO/HRO METAR and TAF weather

Enter ICAO airport designator
Station Type Date Time Source
KHRO METAR 2021/01/17 18:53 UTC NOAA

KHRO 171853Z AUTO 29012G20KT 10SM BKN080 08/M06 A2990 RMK AO2 PK WND 28026/1812 SLP127 T00831056


Station Type Date Time Source
KHRO Decoded METAR 2021/01/17 18:53 UTC NOAA

HARRISON BOONE COUNTY AIRPORT , AR, United States (KHRO) 36-16N 093-09W 417M
Jan 17, 2021 - 01:53 PM EST / 2021.01.17 1853 UTC
Wind: from the WNW (290 degrees) at 14 MPH (12 KT) gusting to 23 MPH (20 KT):0
Visibility: 10 mile(s):0
Sky conditions: mostly cloudy
Temperature: 46.9 F (8.3 C)
Dew Point: 21.9 F (-5.6 C)
Relative Humidity: 36%
Pressure (altimeter): 29.9 in. Hg (1012 hPa)
ob: KHRO 171853Z AUTO 29012G20KT 10SM BKN080 08/M06 A2990 RMK AO2 PK WND 28026/1812 SLP127 T00831056
cycle: 19

Station Type Date Time Source
KHRO TAF 2021/01/17 18:30 UTC NOAA

TAF KHRO 171727Z 1718/1818 28012G20KT P6SM SCT120 BKN250
FM180000 29006KT P6SM SCT250
FM181500 22006KT P6SM SCT100 BKN250

Example: see airport list